Greeley West High School, Colorado
Current Conditions -  °F | °C
As of 7:35 PM on Saturday 20 Dec 2014 (Local Time) from KGXY Reporting Station
Scattered Clouds Scattered Clouds  
Wind Chill: -4°   Ceiling: Unl
Heat Index: -1°   Visibility: 10mi
Dew Point: -9°   Wind: 5mph
Humidity: 55%   Direction: 10°N
Pressure: 29.95"   Gusts: NA
Location:  40.41412°N, 104.7064°W
Report Text: KGXY 210235Z AUTO 01004KT 10SM FEW090 SCT120 M01/M09 A2995 RMK AO1
Loading
Personal Weather Stations






























Interactive Weather Map New forecast layout! Learn more

10-Day Weather Forecast

Advertisements
Track Severe Weather on mobile